Latest Weather Observations for Nambour

IDQ60901

Issued at 12:05 pm EST Sunday 26 October 2014 (issued every 10 minutes, with the page automatically refreshed every 10 minutes)

About weather observations | Map of Brisbane area stations | Latest observations for Brisbane area | Other Formats
Station Details ID: 040988 Name: NAMBOUR DAFF - HILLSIDE Lat: -26.64 Lon: 152.94 Height: 53.24 m
Data from the previous 72 hours. | See also: Recent months at Nambour
Date/Time
EST
Tmp

°C
App
Tmp
°C
Dew
Point
°C
Rel
Hum
%
Delta-T

°C
Wind Press
QNH
hPa
Press
MSL
hPa
Rain
since
9 am
mm
Dir
 
Spd
km/h
Gust
km/h
Spd
kts
Gust
kts
26/12:00pm 31.1 30.1 13.4 34 10.6 N 11 19 6 10 1014.2 1014.0 0.0
26/11:30am 30.7 30.4 14.3 36 10.0 N 9 15 5 8 1014.7 1014.5 0.0
26/11:00am 29.6 29.1 15.0 41 8.9 NNE 11 19 6 10 1015.2 1015.0 0.0
26/10:30am 29.3 29.5 15.8 44 8.4 N 9 17 5 9 1015.8 1015.6 0.0
26/10:00am 28.3 27.8 15.9 47 7.6 N 13 22 7 12 1016.2 1016.0 0.0
26/09:30am 27.0 26.3 15.4 49 7.1 N 13 19 7 10 1016.8 1016.6 0.0
26/09:00am 25.8 24.9 15.8 54 6.1 N 15 22 8 12 1017.0 1016.8 0.0
26/08:30am 24.8 24.3 16.0 58 5.4 N 13 22 7 12 1017.3 1017.1 0.0
26/08:00am 23.5 23.0 15.8 62 4.7 N 13 20 7 11 1017.3 1017.1 0.0
26/07:30am 23.1 22.6 15.9 64 4.4 N 13 24 7 13 1017.3 1017.1 0.0
26/07:00am 22.4 22.3 16.0 67 3.9 N 11 20 6 11 1017.0 1016.8 0.0
26/06:30am 21.4 21.6 15.7 70 3.4 N 9 17 5 9 1016.9 1016.7 0.0
26/06:00am 20.8 21.4 15.8 73 3.0 N 7 11 4 6 1017.1 1016.9 0.0
26/05:30am 20.2 20.0 15.6 75 2.7 N 11 19 6 10 1016.6 1016.4 0.0
26/05:00am 20.1 20.8 15.7 76 2.6 NW 6 13 3 7 1016.5 1016.3 0.0
26/04:30am 19.8 20.4 15.7 77 2.4 NNW 7 17 4 9 1016.4 1016.2 0.0
26/04:00am 19.5 19.9 15.4 77 2.4 NNW 7 17 4 9 1016.6 1016.4 0.0
26/03:30am 19.3 19.9 15.4 78 2.3 N 6 15 3 8 1016.7 1016.5 0.0
26/03:00am 18.9 19.2 15.0 78 2.3 NNW 7 11 4 6 1016.7 1016.5 0.0
26/02:30am 18.4 18.9 14.9 80 2.0 N 6 9 3 5 1017.1 1016.9 0.0
26/02:00am 17.7 18.4 14.4 81 1.9 N 4 7 2 4 1017.3 1017.1 0.0
26/01:30am 17.3 18.4 13.6 79 2.1 CALM 0 0 0 0 1017.9 1017.7 0.0
26/01:00am 18.9 20.3 14.4 75 2.6 CALM 0 0 0 0 1017.9 1017.7 0.0
26/12:30am 18.9 20.2 14.0 73 2.8 CALM 0 2 0 1 1018.0 1017.8 0.0
26/12:00am 19.6 20.8 13.8 69 3.3 SE 0 0 0 0 1017.9 1017.7 0.0
 
Date/Time
EST
Tmp

°C
App
Tmp
°C
Dew
Point
°C
Rel
Hum
%
Delta-T

°C
Wind Press
QNH
hPa
Press
MSL
hPa
Rain
since
9 am
mm
Dir
 
Spd
km/h
Gust
km/h
Spd
kts
Gust
kts
25/11:30pm 20.2 20.0 13.6 66 3.8 N 7 13 4 7 1017.6 1017.4 0.0
25/11:00pm 20.4 20.2 13.1 63 4.2 N 6 7 3 4 1017.6 1017.4 0.0
25/10:30pm 20.8 20.7 13.3 62 4.3 N 6 7 3 4 1017.6 1017.4 0.0
25/10:00pm 20.9 21.1 14.1 65 3.9 N 6 9 3 5 1017.4 1017.2 0.0
25/09:30pm 21.1 21.6 15.0 68 3.6 N 6 9 3 5 1017.3 1017.1 0.0
25/09:00pm 21.2 21.8 15.3 69 3.5 N 6 11 3 6 1017.4 1017.2 0.0
25/08:30pm 21.4 22.0 15.7 70 3.4 N 7 11 4 6 1017.3 1017.1 0.0
25/08:00pm 21.8 22.6 15.9 69 3.5 N 6 9 3 5 1017.3 1017.1 0.0
25/07:30pm 22.3 23.1 15.9 67 3.9 N 6 13 3 7 1016.9 1016.7 0.0
25/07:00pm 22.0 23.3 16.1 69 3.6 N 4 7 2 4 1016.6 1016.4 0.0
25/06:30pm 22.8 23.8 16.4 67 3.9 NNE 6 9 3 5 1016.2 1016.0 0.0
25/06:00pm 23.5 24.3 15.8 62 4.7 N 6 11 3 6 1015.7 1015.5 0.0
25/05:30pm 24.3 24.5 15.8 59 5.2 NNE 9 17 5 9 1015.6 1015.4 0.0
25/05:00pm 24.9 24.4 15.8 57 5.5 NNE 13 20 7 11 1015.4 1015.2 0.0
25/04:30pm 25.1 24.9 15.7 56 5.7 NE 11 20 6 11 1015.3 1015.1 0.0
25/04:00pm 25.8 24.5 15.8 54 6.1 NNE 17 26 9 14 1015.4 1015.2 0.0
25/03:30pm 25.9 25.2 15.3 52 6.4 N 13 19 7 10 1015.6 1015.4 0.0
25/03:00pm 26.7 25.6 15.4 50 6.9 ENE 15 24 8 13 1015.8 1015.6 0.0
25/02:30pm 27.2 25.6 14.9 47 7.4 ENE 17 26 9 14 1015.8 1015.6 0.0
25/02:00pm 28.6 27.9 15.5 45 8.0 NE 13 20 7 11 1016.0 1015.8 0.0
25/01:30pm 28.9 28.1 16.1 46 7.9 ENE 15 22 8 12 1016.3 1016.1 0.0
25/01:00pm 29.8 28.7 11.8 33 10.5 N 9 17 5 9 1016.9 1016.7 0.0
25/12:30pm 28.6 27.7 12.5 37 9.4 NE 9 19 5 10 1017.4 1017.2 0.0
25/12:00pm 28.7 28.3 13.0 38 9.3 NNW 7 19 4 10 1018.2 1018.0 0.0
25/11:30am 27.4 26.1 12.6 40 8.6 NNE 11 19 6 10 1018.7 1018.5 0.0
25/11:00am 27.1 26.5 13.4 42 8.1 N 9 15 5 8 1019.2 1019.0 0.0
25/10:30am 25.9 24.7 12.7 44 7.7 N 11 20 6 11 1019.9 1019.7 0.0
25/10:00am 24.9 23.9 13.5 49 6.7 N 11 19 6 10 1020.6 1020.4 0.0
25/09:30am 23.8 22.3 13.1 51 6.2 N 13 20 7 11 1021.0 1020.9 0.0
25/09:00am 23.8 23.2 13.6 52 5.9 NNW 9 17 5 9 1021.3 1021.2 0.0
25/08:30am 22.6 20.8 13.4 56 5.3 NNW 15 26 8 14 1021.6 1021.5 0.0
25/08:00am 22.1 20.6 13.2 57 5.1 NNW 13 22 7 12 1021.5 1021.4 0.0
25/07:30am 21.4 19.9 13.1 59 4.8 NNW 13 24 7 13 1021.7 1021.6 0.0
25/07:00am 21.0 20.8 13.7 63 4.2 N 7 17 4 9 1021.3 1021.2 0.0
25/06:30am 18.5 19.8 14.0 75 2.6 CALM 0 6 0 3 1021.1 1021.0 0.0
25/06:00am 15.7 16.9 13.9 89 1.0 CALM 0 0 0 0 1020.8 1020.7 0.0
25/05:30am 14.3 15.3 13.2 93 0.6 CALM 0 0 0 0 1020.6 1020.4 0.0
25/05:00am 14.1 14.9 12.7 91 0.8 CALM 0 0 0 0 1020.5 1020.3 0.0
25/04:30am 14.4 15.2 12.6 89 1.0 CALM 0 0 0 0 1020.2 1020.0 0.0
25/04:00am 14.5 15.3 12.7 89 1.0 CALM 0 0 0 0 1020.0 1019.8 0.0
25/03:30am 14.4 15.2 12.6 89 1.0 CALM 0 0 0 0 1019.7 1019.5 0.0
25/03:00am 14.6 15.5 13.0 90 0.9 CALM 0 0 0 0 1019.1 1018.9 0.0
25/02:30am 14.4 15.2 12.4 88 1.1 CALM 0 0 0 0 1019.1 1018.9 0.0
25/02:00am 14.7 15.4 12.2 85 1.4 CALM 0 0 0 0 1019.5 1019.3 0.0
25/01:30am 14.8 15.6 12.5 86 1.3 CALM 0 0 0 0 1019.7 1019.5 0.0
25/01:00am 15.6 16.5 12.9 84 1.5 CALM 0 0 0 0 1020.4 1020.2 0.0
25/12:30am 15.3 16.1 12.6 84 1.5 CALM 0 0 0 0 1020.9 1020.8 0.0
25/12:00am 15.5 16.4 13.0 85 1.4 CALM 0 0 0 0 1021.3 1021.2 0.0
 
Date/Time
EST
Tmp

°C
App
Tmp
°C
Dew
Point
°C
Rel
Hum
%
Delta-T

°C
Wind Press
QNH
hPa
Press
MSL
hPa
Rain
since
9 am
mm
Dir
 
Spd
km/h
Gust
km/h
Spd
kts
Gust
kts
24/11:30pm 15.5 16.3 12.4 82 1.7 CALM 0 0 0 0 1021.8 1021.7 0.0
24/11:00pm 15.7 16.5 12.6 82 1.7 CALM 0 0 0 0 1022.0 1021.9 0.0
24/10:30pm 15.8 16.6 12.5 81 1.8 CALM 0 0 0 0 1022.3 1022.2 0.0
24/10:00pm 16.0 16.8 12.6 80 1.9 CALM 0 0 0 0 1022.6 1022.5 0.0
24/09:30pm 16.7 17.6 12.8 78 2.2 CALM 0 4 0 2 1022.5 1022.4 0.0
24/09:00pm 16.9 17.8 13.0 78 2.2 CALM 0 0 0 0 1022.4 1022.3 0.0
24/08:30pm 17.7 18.7 13.2 75 2.5 CALM 0 2 0 1 1022.6 1022.5 0.0
24/08:00pm 17.8 18.8 13.1 74 2.6 CALM 0 2 0 1 1022.5 1022.4 0.0
24/07:30pm 18.6 18.8 13.2 71 3.1 WNW 4 4 2 2 1022.3 1022.2 0.0
24/07:00pm 19.5 19.7 13.0 66 3.7 NNW 4 7 2 4 1021.9 1021.8 0.0
24/06:30pm 20.3 20.0 13.3 64 4.0 NNE 7 13 4 7 1021.5 1021.4 0.0
24/06:00pm 20.8 19.8 13.3 62 4.3 NE 11 19 6 10 1021.2 1021.1 0.0
24/05:30pm 21.3 20.9 13.0 59 4.7 NNE 7 13 4 7 1021.0 1020.9 0.0
24/05:00pm 21.9 20.3 12.7 56 5.2 ENE 13 26 7 14 1020.6 1020.4 0.0
24/04:30pm 22.6 21.4 12.8 54 5.6 NE 11 22 6 12 1020.3 1020.1 0.0
24/04:00pm 22.8 21.2 12.7 53 5.8 ENE 13 22 7 12 1020.1 1019.9 0.0
24/03:30pm 23.3 21.0 12.9 52 6.0 E 17 26 9 14 1020.1 1019.9 0.0
24/03:00pm 23.6 21.8 13.2 52 6.0 ENE 15 24 8 13 1020.0 1019.8 0.0
24/02:30pm 24.1 21.9 13.3 51 6.3 E 17 26 9 14 1020.2 1020.0 0.0
24/02:00pm 24.2 22.4 13.4 51 6.3 ENE 15 24 8 13 1020.1 1019.9 0.0
24/01:30pm 24.9 22.9 13.8 50 6.5 E 17 28 9 15 1020.3 1020.1 0.0
24/01:00pm 24.5 22.2 13.1 49 6.6 ENE 17 32 9 17 1020.8 1020.7 0.0
24/12:30pm 25.4 23.8 13.9 49 6.8 ENE 15 26 8 14 1021.0 1020.9 0.0
24/12:00pm 25.4 24.3 14.2 50 6.6 NE 13 20 7 11 1021.3 1021.2 0.0
24/11:30am 25.8 25.4 14.0 48 7.0 NE 9 20 5 11 1021.4 1021.3 0.0
24/11:00am 24.7 24.4 13.3 49 6.6 ENE 7 17 4 9 1021.9 1021.8 0.0
24/10:30am 24.4 24.1 12.7 48 6.8 E 6 11 3 6 1022.3 1022.2 0.0
24/10:00am 24.0 23.5 12.6 49 6.5 ENE 7 15 4 8 1022.7 1022.6 0.0
24/09:30am 23.6 22.9 13.2 52 6.0 NE 9 17 5 9 1023.0 1022.9 0.0
24/09:00am 23.3 23.0 12.6 51 6.1 ENE 6 11 3 6 1023.2 1023.1 0.0
24/08:30am 22.1 22.1 12.4 54 5.5 N 4 7 2 4 1023.1 1023.0 0.0
24/08:00am 22.5 22.7 13.0 55 5.4 NNE 4 7 2 4 1023.1 1023.0 0.0
24/07:30am 20.9 21.6 13.4 62 4.3 NNW 2 6 1 3 1022.8 1022.7 0.0
24/07:00am 19.0 20.2 13.8 72 3.0 CALM 0 0 0 0 1022.5 1022.4 0.0
24/06:30am 16.3 17.2 12.8 80 1.9 CALM 0 0 0 0 1022.4 1022.3 0.0
24/06:00am 15.1 16.1 13.3 89 1.0 CALM 0 0 0 0 1022.5 1022.4 0.0
24/05:30am 13.5 14.3 12.7 95 0.4 CALM 0 0 0 0 1021.9 1021.8 0.0
24/05:00am 13.4 14.2 12.5 94 0.5 CALM 0 0 0 0 1021.9 1021.8 0.0
24/04:30am 13.6 14.4 12.7 94 0.5 CALM 0 0 0 0 1021.5 1021.4 0.0
24/04:00am 13.5 14.2 12.2 92 0.7 CALM 0 0 0 0 1021.0 1020.9 0.0
24/03:30am 13.9 14.7 12.6 92 0.7 CALM 0 0 0 0 1020.8 1020.7 0.0
24/03:00am 14.0 14.8 12.6 91 0.8 CALM 0 0 0 0 1020.9 1020.8 0.0
24/02:30am 13.9 14.7 12.5 91 0.8 CALM 0 0 0 0 1020.8 1020.7 0.0
24/02:00am 13.9 14.7 12.6 92 0.7 CALM 0 0 0 0 1020.9 1020.8 0.0
24/01:30am 14.0 14.8 12.4 90 0.9 CALM 0 0 0 0 1020.9 1020.8 0.0
24/01:00am 14.5 15.3 12.7 89 1.0 CALM 0 0 0 0 1021.3 1021.2 0.0
24/12:30am 14.7 15.7 13.1 90 0.9 CALM 0 0 0 0 1021.6 1021.5 0.0
24/12:00am 14.8 15.5 12.1 84 1.5 CALM 0 0 0 0 1021.9 1021.8 0.0
 
Date/Time
EST
Tmp

°C
App
Tmp
°C
Dew
Point
°C
Rel
Hum
%
Delta-T

°C
Wind Press
QNH
hPa
Press
MSL
hPa
Rain
since
9 am
mm
Dir
 
Spd
km/h
Gust
km/h
Spd
kts
Gust
kts
23/11:30pm 14.8 15.6 12.5 86 1.3 CALM 0 0 0 0 1021.8 1021.7 0.0
23/11:00pm 15.1 15.8 12.2 83 1.6 CALM 0 0 0 0 1021.9 1021.8 0.0
23/10:30pm 15.3 16.0 12.2 82 1.7 CALM 0 0 0 0 1022.2 1022.1 0.0
23/10:00pm 15.4 16.1 12.2 81 1.7 CALM 0 0 0 0 1022.1 1022.0 0.0
23/09:30pm 15.7 16.5 12.5 81 1.8 CALM 0 0 0 0 1021.9 1021.8 0.0
23/09:00pm 16.4 17.2 12.6 78 2.1 CALM 0 0 0 0 1021.7 1021.6 0.0
23/08:30pm 16.4 17.2 12.4 77 2.2 CALM 0 0 0 0 1021.4 1021.3 0.0
23/08:00pm 16.9 17.7 12.4 75 2.5 CALM 0 0 0 0 1021.0 1020.9 0.0
23/07:30pm 17.8 18.2 12.5 71 3.0 W 2 4 1 2 1020.6 1020.4 0.0
23/07:00pm 18.7 19.5 12.5 67 3.5 CALM 0 0 0 0 1020.4 1020.2 0.0
23/06:30pm 19.6 19.5 12.1 62 4.2 NE 4 7 2 4 1020.2 1020.0 0.0
23/06:00pm 20.4 19.8 12.4 60 4.5 NE 7 13 4 7 1019.6 1019.4 0.0
23/05:30pm 21.0 20.0 12.2 57 5.0 NNE 9 15 5 8 1019.0 1018.8 0.0
23/05:00pm 21.8 20.7 12.1 54 5.5 NNE 9 17 5 9 1018.8 1018.6 0.0
23/04:30pm 22.2 20.6 11.6 51 5.9 NE 11 17 6 9 1018.5 1018.3 0.0
23/04:00pm 23.3 21.6 12.3 50 6.3 E 13 17 7 9 1018.3 1018.1 0.0
23/03:30pm 23.3 21.5 12.0 49 6.4 ENE 13 20 7 11 1018.1 1017.9 0.0
23/03:00pm 23.5 22.0 11.9 48 6.6 ENE 11 19 6 10 1018.2 1018.0 0.0
23/02:30pm 24.0 22.2 12.0 47 6.8 E 13 22 7 12 1018.3 1018.1 0.0
23/02:00pm 24.1 22.5 12.7 49 6.6 ENE 13 20 7 11 1018.5 1018.3 0.0
23/01:30pm 24.7 23.2 13.0 48 6.8 E 13 22 7 12 1018.9 1018.7 0.0
23/01:00pm 24.6 22.8 12.2 46 7.1 ENE 13 22 7 12 1019.3 1019.1 0.0
23/12:30pm 25.1 23.1 12.7 46 7.2 ENE 15 22 8 12 1019.6 1019.4 0.0

Latest Capital City Observations: Canberra | Sydney | Melbourne | Brisbane | Adelaide | Perth | Hobart | Darwin

Other Formats:

Comma delimited format used in spreadsheet applications
http://www.bom.gov.au/fwo/IDQ60901/IDQ60901.95572.axf

JavaScript Object Notation format (JSON) in row-major order
http://www.bom.gov.au/fwo/IDQ60901/IDQ60901.95572.json